createdAt,value
2017-10-20T00:01:09.362Z,12.43
2017-10-20T00:03:36.832Z,17.67
2017-10-20T00:06:04.316Z,17.53
2017-10-20T00:08:31.788Z,14.80
2017-10-20T00:10:59.255Z,15.00
2017-10-20T00:13:27.499Z,16.67
2017-10-20T00:15:54.963Z,16.50
2017-10-20T00:18:22.433Z,17.23
2017-10-20T00:20:49.915Z,14.00
2017-10-20T00:23:17.382Z,21.70
2017-10-20T00:25:44.852Z,18.73
2017-10-20T00:28:12.337Z,21.10
2017-10-20T00:30:39.796Z,21.83
2017-10-20T00:33:08.030Z,20.63
2017-10-20T00:35:35.504Z,16.97
2017-10-20T00:38:02.967Z,15.73
2017-10-20T00:40:30.446Z,23.13
2017-10-20T00:42:57.919Z,20.30
2017-10-20T00:45:25.392Z,18.03
2017-10-20T00:47:53.632Z,19.03
2017-10-20T00:50:22.083Z,13.90
2017-10-20T00:52:49.543Z,18.77
2017-10-20T00:55:16.999Z,15.87
2017-10-20T00:57:44.471Z,14.87
2017-10-20T01:00:11.983Z,13.80
2017-10-20T01:02:40.203Z,20.33
2017-10-20T01:05:07.791Z,20.07
2017-10-20T01:07:35.252Z,18.10
2017-10-20T01:10:03.497Z,17.73
2017-10-20T01:12:30.971Z,13.97
2017-10-20T01:14:58.443Z,20.83
2017-10-20T01:17:26.705Z,13.60
2017-10-20T01:19:54.193Z,15.47
2017-10-20T01:22:22.426Z,15.43
2017-10-20T01:24:49.919Z,13.80
2017-10-20T01:27:18.175Z,13.40
2017-10-20T01:29:45.641Z,19.60
2017-10-20T01:32:13.868Z,15.07
2017-10-20T01:34:41.358Z,16.00
2017-10-20T01:37:08.911Z,19.17
2017-10-20T01:39:36.376Z,12.00
2017-10-20T01:42:03.937Z,12.07
2017-10-20T01:44:32.207Z,17.33
2017-10-20T01:46:59.763Z,15.97
2017-10-20T01:49:27.245Z,14.40
2017-10-20T01:51:55.495Z,12.70
2017-10-20T01:54:22.966Z,16.60
2017-10-20T01:56:51.222Z,11.10
2017-10-20T01:59:18.709Z,12.50
2017-10-20T02:01:46.956Z,15.73
2017-10-20T02:04:14.427Z,12.53
2017-10-20T02:06:41.983Z,20.33
2017-10-20T02:09:09.457Z,18.70
2017-10-20T02:11:37.684Z,13.13
2017-10-20T02:14:05.147Z,16.10
2017-10-20T02:16:32.628Z,12.60
2017-10-20T02:19:00.108Z,17.57
2017-10-20T02:21:28.458Z,14.30
2017-10-20T02:23:55.967Z,12.33
2017-10-20T02:26:23.492Z,17.13
2017-10-20T02:28:51.736Z,21.97
2017-10-20T02:31:19.215Z,14.70
2017-10-20T02:33:46.716Z,16.10
2017-10-20T02:36:14.183Z,14.03
2017-10-20T02:38:41.660Z,14.13
2017-10-20T02:41:09.133Z,15.73
2017-10-20T02:43:36.596Z,15.40
2017-10-20T02:46:04.066Z,12.00
2017-10-20T02:48:32.307Z,16.77
2017-10-20T02:50:59.885Z,15.10
2017-10-20T02:53:28.860Z,21.20
2017-10-20T02:55:56.444Z,16.50
2017-10-20T02:58:23.914Z,11.70
2017-10-20T03:00:52.152Z,10.77
2017-10-20T03:03:19.733Z,18.03
2017-10-20T03:05:47.209Z,15.83
2017-10-20T03:08:15.472Z,21.70
2017-10-20T03:10:43.733Z,11.70
2017-10-20T03:13:11.194Z,13.90
2017-10-20T03:15:38.672Z,9.47
2017-10-20T03:18:06.926Z,12.30
2017-10-20T03:20:34.416Z,13.43
2017-10-20T03:23:01.934Z,9.50
2017-10-20T03:25:30.208Z,10.57
2017-10-20T03:27:57.838Z,11.90
2017-10-20T03:30:25.354Z,12.20
2017-10-20T03:32:53.591Z,11.23
2017-10-20T03:35:21.076Z,14.10
2017-10-20T03:37:48.544Z,9.27
2017-10-20T03:40:16.865Z,16.57
2017-10-20T03:42:44.352Z,13.43
2017-10-20T03:45:11.866Z,14.53
2017-10-20T03:47:39.350Z,13.03
2017-10-20T03:50:06.834Z,11.17
2017-10-20T03:52:34.287Z,7.90
2017-10-20T03:55:01.841Z,13.43
2017-10-20T03:57:29.318Z,15.10
2017-10-20T03:59:57.625Z,10.50
2017-10-20T04:02:25.116Z,15.83
2017-10-20T04:04:52.587Z,10.50
2017-10-20T04:07:20.075Z,12.53
2017-10-20T04:09:47.560Z,9.23
2017-10-20T04:12:15.047Z,10.30
2017-10-20T04:14:42.539Z,10.43
2017-10-20T04:17:10.763Z,10.70
2017-10-20T04:19:38.236Z,10.00
2017-10-20T04:22:05.716Z,10.53
2017-10-20T04:24:33.967Z,8.90
2017-10-20T04:27:01.436Z,12.20
2017-10-20T04:29:29.000Z,13.20
2017-10-20T04:31:56.589Z,10.40
2017-10-20T04:34:24.062Z,13.37
2017-10-20T04:36:51.559Z,10.47
2017-10-20T04:39:19.030Z,7.83
2017-10-20T04:41:46.491Z,9.37
2017-10-20T04:44:14.784Z,8.57
2017-10-20T04:46:43.010Z,14.47
2017-10-20T04:49:10.470Z,8.90
2017-10-20T04:51:37.996Z,15.60
2017-10-20T04:54:05.476Z,11.43
2017-10-20T04:56:32.969Z,8.23
2017-10-20T04:59:01.243Z,9.57
2017-10-20T05:01:28.711Z,8.63
2017-10-20T05:03:57.021Z,14.53
2017-10-20T05:06:24.548Z,13.67
2017-10-20T05:08:52.783Z,13.43
2017-10-20T05:11:21.023Z,7.47
2017-10-20T05:13:48.532Z,11.43
2017-10-20T05:16:16.105Z,12.00
2017-10-20T05:18:43.574Z,18.20
2017-10-20T05:21:11.820Z,8.50
2017-10-20T05:23:39.295Z,11.63
2017-10-20T05:26:07.531Z,11.93
2017-10-20T05:28:36.036Z,7.47
2017-10-20T05:31:03.604Z,15.60
2017-10-20T05:33:31.089Z,11.83
2017-10-20T05:35:58.611Z,11.03
2017-10-20T05:38:26.095Z,10.77
2017-10-20T05:40:54.374Z,8.83
2017-10-20T05:43:22.597Z,7.67
2017-10-20T05:45:50.068Z,5.33
2017-10-20T05:48:17.527Z,5.67
2017-10-20T05:50:44.983Z,9.77
2017-10-20T05:53:12.460Z,8.40
2017-10-20T05:55:40.699Z,9.80
2017-10-20T05:58:08.156Z,7.40
2017-10-20T06:00:35.611Z,4.70
2017-10-20T06:03:03.108Z,11.23
2017-10-20T06:05:31.351Z,5.63
2017-10-20T06:07:58.895Z,5.03
2017-10-20T06:10:26.359Z,5.73
2017-10-20T06:12:53.823Z,2.17
2017-10-20T06:15:21.289Z,8.07
2017-10-20T06:17:48.759Z,5.67
2017-10-20T06:20:16.227Z,5.87
2017-10-20T06:22:44.457Z,1.67
2017-10-20T06:25:11.936Z,3.80
2017-10-20T06:27:40.312Z,2.33
2017-10-20T06:30:07.785Z,2.73
2017-10-20T06:32:36.092Z,3.90
2017-10-20T06:35:03.570Z,5.07
2017-10-20T06:37:31.057Z,4.77
2017-10-20T06:39:58.540Z,5.23
2017-10-20T06:42:26.032Z,5.43
2017-10-20T06:44:53.499Z,2.20
2017-10-20T06:47:20.983Z,8.97
2017-10-20T06:49:48.453Z,4.07
2017-10-20T06:52:15.921Z,4.13
2017-10-20T06:54:44.229Z,7.17
2017-10-20T06:57:11.710Z,5.03
2017-10-20T06:59:39.187Z,7.97
2017-10-20T07:02:06.653Z,3.73
2017-10-20T07:04:34.129Z,7.53
2017-10-20T07:07:01.630Z,12.00
2017-10-20T07:09:29.112Z,10.57
2017-10-20T07:11:56.588Z,6.10
2017-10-20T07:14:24.051Z,8.87
2017-10-20T07:16:52.299Z,7.43
2017-10-20T07:19:25.424Z,7.60
2017-10-20T07:21:53.659Z,5.90
2017-10-20T07:24:22.066Z,6.53
2017-10-20T07:26:50.328Z,5.20
2017-10-20T07:29:17.812Z,4.03
2017-10-20T07:31:46.054Z,11.40
2017-10-20T07:34:13.523Z,3.97
2017-10-20T07:36:40.984Z,5.20
2017-10-20T07:39:08.448Z,6.30
2017-10-20T07:41:36.715Z,5.70
2017-10-20T07:44:04.208Z,13.03
2017-10-20T07:46:31.688Z,7.40
2017-10-20T07:48:59.169Z,6.67
2017-10-20T07:51:26.652Z,8.77
2017-10-20T07:53:54.132Z,9.00
2017-10-20T07:56:21.619Z,8.43
2017-10-20T07:58:49.098Z,10.30
2017-10-20T08:01:16.569Z,4.43
2017-10-20T08:03:44.048Z,9.40
2017-10-20T08:06:12.372Z,13.90
2017-10-20T08:08:39.844Z,8.30
2017-10-20T08:11:07.398Z,11.70
2017-10-20T08:13:34.877Z,14.63
2017-10-20T08:16:02.357Z,13.83
2017-10-20T08:18:30.605Z,8.93
2017-10-20T08:20:58.068Z,9.03
2017-10-20T08:23:25.537Z,12.50
2017-10-20T08:25:53.804Z,6.43
2017-10-20T08:28:22.141Z,11.53
2017-10-20T08:30:49.613Z,12.07
2017-10-20T08:33:17.087Z,6.83
2017-10-20T08:35:44.558Z,7.73
2017-10-20T08:38:12.784Z,10.00
2017-10-20T08:40:40.258Z,9.07
2017-10-20T08:43:07.728Z,9.03
2017-10-20T08:45:35.204Z,7.20
2017-10-20T08:48:03.449Z,13.30
2017-10-20T08:50:30.924Z,12.67
2017-10-20T08:52:58.384Z,6.77
2017-10-20T08:55:25.865Z,6.40
2017-10-20T08:57:53.320Z,3.67
2017-10-20T09:00:20.784Z,7.17
2017-10-20T09:02:48.256Z,18.57
2017-10-20T09:05:15.726Z,5.53
2017-10-20T09:07:43.188Z,12.53
2017-10-20T09:10:10.681Z,9.37
2017-10-20T09:12:38.159Z,9.13
2017-10-20T09:15:06.387Z,11.53
2017-10-20T09:17:33.857Z,7.63
2017-10-20T09:20:02.092Z,6.20
2017-10-20T09:22:29.551Z,7.40
2017-10-20T09:24:57.035Z,12.13
2017-10-20T09:27:24.482Z,7.43
2017-10-20T09:29:51.945Z,7.37
2017-10-20T09:32:19.426Z,9.83
2017-10-20T09:34:47.668Z,13.00
2017-10-20T09:37:15.131Z,10.93
2017-10-20T09:39:42.612Z,9.93
2017-10-20T09:42:10.864Z,10.20
2017-10-20T09:44:38.344Z,11.17
2017-10-20T09:47:06.295Z,12.03
2017-10-20T09:49:33.767Z,9.03
2017-10-20T09:52:01.394Z,14.03
2017-10-20T09:54:28.898Z,11.03
2017-10-20T09:56:57.119Z,7.37
2017-10-20T09:59:24.588Z,13.47
2017-10-20T10:01:52.097Z,12.03
2017-10-20T10:04:20.336Z,8.73
2017-10-20T10:06:47.808Z,12.30
2017-10-20T10:09:16.073Z,14.93
2017-10-20T10:11:43.530Z,12.60
2017-10-20T10:14:10.987Z,17.33
2017-10-20T10:16:38.476Z,8.93
2017-10-20T10:19:06.733Z,9.70
2017-10-20T10:21:34.175Z,6.77
2017-10-20T10:24:01.643Z,9.30
2017-10-20T10:26:29.107Z,9.23
2017-10-20T10:28:57.339Z,13.27
2017-10-20T10:31:24.812Z,10.23
2017-10-20T10:33:52.284Z,10.53
2017-10-20T10:36:19.752Z,8.57
2017-10-20T10:38:47.996Z,17.20
2017-10-20T10:41:15.463Z,9.90
2017-10-20T10:43:42.920Z,9.60
2017-10-20T10:46:10.413Z,14.20
2017-10-20T10:48:38.635Z,12.73
2017-10-20T10:51:06.123Z,11.83
2017-10-20T10:53:33.583Z,8.53
2017-10-20T10:56:01.808Z,9.33
2017-10-20T10:58:29.275Z,9.60
2017-10-20T11:00:56.747Z,11.53
2017-10-20T11:03:24.233Z,10.83
2017-10-20T11:06:04.176Z,9.13
2017-10-20T11:08:43.479Z,9.37
2017-10-20T11:11:22.792Z,13.50
2017-10-20T11:13:50.261Z,17.23
2017-10-20T11:16:17.736Z,15.50
2017-10-20T11:18:45.199Z,11.20
2017-10-20T11:21:12.670Z,8.87
2017-10-20T11:23:40.908Z,8.43
2017-10-20T11:26:08.380Z,12.70
2017-10-20T11:28:35.870Z,11.03
2017-10-20T11:31:04.100Z,10.00
2017-10-20T11:33:31.563Z,14.93
2017-10-20T11:35:59.056Z,17.83
2017-10-20T11:38:27.284Z,8.50
2017-10-20T11:40:54.751Z,14.20
2017-10-20T11:43:22.227Z,15.43
2017-10-20T11:45:49.699Z,17.30
2017-10-20T11:48:17.928Z,5.93
2017-10-20T11:50:45.419Z,12.73
2017-10-20T11:53:12.876Z,9.43
2017-10-20T11:55:40.340Z,17.40
2017-10-20T11:58:07.812Z,9.70
2017-10-20T12:00:36.175Z,6.87
2017-10-20T12:03:04.408Z,10.67
2017-10-20T12:05:31.899Z,15.50
2017-10-20T12:07:59.361Z,9.43
2017-10-20T12:10:26.823Z,9.00
2017-10-20T12:12:55.063Z,12.97
2017-10-20T12:15:23.412Z,11.00
2017-10-20T12:17:50.872Z,5.00
2017-10-20T12:20:18.364Z,7.03
2017-10-20T12:22:45.823Z,9.50
2017-10-20T12:25:13.291Z,4.90
2017-10-20T12:27:40.765Z,12.20
2017-10-20T12:30:08.991Z,7.80
2017-10-20T12:32:37.234Z,5.90
2017-10-20T12:35:04.707Z,6.37
2017-10-20T12:37:32.175Z,10.63
2017-10-20T12:39:59.650Z,11.53
2017-10-20T12:42:27.999Z,10.93
2017-10-20T12:44:56.359Z,10.80
2017-10-20T12:47:23.828Z,8.20
2017-10-20T12:49:51.308Z,11.20
2017-10-20T12:52:18.768Z,9.70
2017-10-20T12:54:46.241Z,8.70
2017-10-20T12:57:13.719Z,6.50
2017-10-20T12:59:41.995Z,5.77
2017-10-20T13:02:09.438Z,10.53
2017-10-20T13:04:36.907Z,8.10
2017-10-20T13:07:05.163Z,10.13
2017-10-20T13:09:32.788Z,15.40
2017-10-20T13:12:00.287Z,17.30
2017-10-20T13:14:27.772Z,16.13
2017-10-20T13:16:56.004Z,10.60
2017-10-20T13:19:23.489Z,7.60
2017-10-20T13:21:51.773Z,10.37
2017-10-20T13:24:20.004Z,9.40
2017-10-20T13:26:47.500Z,8.47
2017-10-20T13:29:15.720Z,9.90
2017-10-20T13:31:43.209Z,15.73
2017-10-20T13:34:10.697Z,15.57
2017-10-20T13:36:38.935Z,23.33
2017-10-20T13:39:06.408Z,6.67
2017-10-20T13:41:33.890Z,12.83
2017-10-20T13:44:01.374Z,15.73
2017-10-20T13:46:28.843Z,10.80
2017-10-20T13:48:56.315Z,9.27
2017-10-20T13:51:23.789Z,9.60
2017-10-20T13:53:51.509Z,9.40
2017-10-20T13:56:18.986Z,11.50
2017-10-20T13:58:46.460Z,15.00
2017-10-20T14:01:13.926Z,17.80
2017-10-20T14:03:41.387Z,18.13
2017-10-20T14:06:09.641Z,14.70
2017-10-20T14:08:37.115Z,14.07
2017-10-20T14:11:04.587Z,18.33
2017-10-20T14:13:33.652Z,20.87
2017-10-20T14:16:01.145Z,15.30
2017-10-20T14:18:29.492Z,11.57
2017-10-20T14:20:56.959Z,14.10
2017-10-20T14:23:25.208Z,12.43
2017-10-20T14:25:52.684Z,20.23
2017-10-20T14:28:20.168Z,12.80
2017-10-20T14:30:48.421Z,19.13
2017-10-20T14:33:15.908Z,10.90
2017-10-20T14:35:43.393Z,14.30
2017-10-20T14:38:10.868Z,17.00
2017-10-20T14:40:38.350Z,18.13
2017-10-20T14:43:06.580Z,26.03
2017-10-20T14:45:34.057Z,23.30
2017-10-20T14:48:01.596Z,12.47
2017-10-20T14:50:29.062Z,29.30
2017-10-20T14:52:56.540Z,17.23
2017-10-20T14:55:24.013Z,25.87
2017-10-20T14:57:51.483Z,9.37
2017-10-20T15:00:19.711Z,23.83
2017-10-20T15:02:47.189Z,11.87
2017-10-20T15:05:14.664Z,15.83
2017-10-20T15:07:42.892Z,21.27
2017-10-20T15:10:10.368Z,15.67
2017-10-20T15:12:37.908Z,15.33
2017-10-20T15:15:05.403Z,20.23
2017-10-20T15:17:32.885Z,24.43
2017-10-20T15:20:01.247Z,22.97
2017-10-20T15:22:29.492Z,25.87
2017-10-20T15:24:56.963Z,18.43
2017-10-20T15:27:24.415Z,19.10
2017-10-20T15:29:51.878Z,26.70
2017-10-20T15:32:19.359Z,21.60
2017-10-20T15:34:47.598Z,30.23
2017-10-20T15:37:15.051Z,17.67
2017-10-20T15:39:42.538Z,18.23
2017-10-20T15:42:10.783Z,27.53
2017-10-20T15:44:38.264Z,24.37
2017-10-20T15:47:06.532Z,25.40
2017-10-20T15:49:34.391Z,26.10
2017-10-20T15:52:01.859Z,24.90
2017-10-20T15:54:29.339Z,22.90
2017-10-20T15:56:57.579Z,25.47
2017-10-20T15:59:25.060Z,46.03
2017-10-20T16:01:53.338Z,25.93
2017-10-20T16:04:21.570Z,32.83
2017-10-20T16:06:49.034Z,13.00
2017-10-20T16:09:16.517Z,23.63
2017-10-20T16:11:44.823Z,26.37
2017-10-20T16:14:12.309Z,28.17
2017-10-20T16:16:39.793Z,25.17
2017-10-20T16:19:07.261Z,48.87
2017-10-20T16:21:34.715Z,36.43
2017-10-20T16:24:02.221Z,28.50
2017-10-20T16:26:29.689Z,33.67
2017-10-20T16:28:57.162Z,39.07
2017-10-20T16:31:24.647Z,33.93
2017-10-20T16:33:52.099Z,40.77
2017-10-20T16:36:19.559Z,35.53
2017-10-20T16:38:47.806Z,34.67
2017-10-20T16:41:15.280Z,29.67
2017-10-20T16:43:42.738Z,42.03
2017-10-20T16:46:10.215Z,31.17
2017-10-20T16:48:38.459Z,38.57
2017-10-20T16:51:05.927Z,34.70
2017-10-20T16:53:33.402Z,32.03
2017-10-20T16:56:01.627Z,29.43
2017-10-20T16:58:29.097Z,33.43
2017-10-20T17:00:56.581Z,34.00
2017-10-20T17:03:24.052Z,32.93
2017-10-20T17:05:52.295Z,27.77
2017-10-20T17:08:19.764Z,25.30
2017-10-20T17:10:47.236Z,28.67
2017-10-20T17:13:15.473Z,35.50
2017-10-20T17:15:42.962Z,32.73
2017-10-20T17:18:10.435Z,44.53
2017-10-20T17:20:37.891Z,40.80
2017-10-20T17:23:05.459Z,25.97
2017-10-20T17:25:32.928Z,41.80
2017-10-20T17:28:00.396Z,26.63
2017-10-20T17:30:27.884Z,35.73
2017-10-20T17:32:55.340Z,25.87
2017-10-20T17:35:22.824Z,32.03
2017-10-20T17:37:51.080Z,36.60
2017-10-20T17:40:18.604Z,32.50
2017-10-20T17:42:46.069Z,24.93
2017-10-20T17:45:13.536Z,42.13
2017-10-20T17:47:41.009Z,33.60
2017-10-20T17:50:08.463Z,35.83
2017-10-20T17:52:35.970Z,35.43
2017-10-20T17:55:03.435Z,26.33
2017-10-20T17:57:30.910Z,20.27
2017-10-20T17:59:58.378Z,23.37
2017-10-20T18:02:26.005Z,26.63
2017-10-20T18:04:53.467Z,29.53
2017-10-20T18:07:20.949Z,27.23
2017-10-20T18:09:48.413Z,22.80
2017-10-20T18:12:15.915Z,33.97
2017-10-20T18:14:44.162Z,16.60
2017-10-20T18:17:11.615Z,27.30
2017-10-20T18:19:39.088Z,18.77
2017-10-20T18:22:07.329Z,36.97
2017-10-20T18:24:34.787Z,25.73
2017-10-20T18:27:02.248Z,16.70
2017-10-20T18:29:29.720Z,21.33
2017-10-20T18:31:57.179Z,20.30
2017-10-20T18:34:24.635Z,25.67
2017-10-20T18:36:52.888Z,20.87
2017-10-20T18:39:20.359Z,22.30
2017-10-20T18:41:47.811Z,50.30
2017-10-20T18:44:15.301Z,22.53
2017-10-20T18:46:43.540Z,35.63
2017-10-20T18:49:11.017Z,31.47
2017-10-20T18:51:38.483Z,32.43
2017-10-20T18:54:06.728Z,23.43
2017-10-20T18:56:34.203Z,17.37
2017-10-20T18:59:02.456Z,25.93
2017-10-20T19:01:29.940Z,26.03
2017-10-20T19:03:58.172Z,37.30
2017-10-20T19:06:25.664Z,15.93
2017-10-20T19:08:53.127Z,27.33
2017-10-20T19:11:21.362Z,35.40
2017-10-20T19:13:48.840Z,21.60
2017-10-20T19:16:16.307Z,26.60
2017-10-20T19:18:43.767Z,30.43
2017-10-20T19:21:12.017Z,25.57
2017-10-20T19:23:39.482Z,26.00
2017-10-20T19:26:06.944Z,32.73
2017-10-20T19:28:34.431Z,24.27
2017-10-20T19:31:02.669Z,23.07
2017-10-20T19:33:30.146Z,23.20
2017-10-20T19:35:58.208Z,22.47
2017-10-20T19:38:25.680Z,26.30
2017-10-20T19:40:53.910Z,23.03
2017-10-20T19:43:21.392Z,24.10
2017-10-20T19:45:48.857Z,27.30
2017-10-20T19:48:17.101Z,20.33
2017-10-20T19:50:44.596Z,24.50
2017-10-20T19:53:12.064Z,26.93
2017-10-20T19:55:40.303Z,34.77
2017-10-20T19:58:07.776Z,16.17
2017-10-20T20:00:35.251Z,23.53
2017-10-20T20:03:03.480Z,24.20
2017-10-20T20:05:30.951Z,22.43
2017-10-20T20:07:58.424Z,20.47
2017-10-20T20:10:26.817Z,19.73
2017-10-20T20:12:55.055Z,25.93
2017-10-20T20:15:22.533Z,18.73
2017-10-20T20:17:49.991Z,21.87
2017-10-20T20:20:18.164Z,25.90
2017-10-20T20:22:45.648Z,20.83
2017-10-20T20:25:13.128Z,29.50
2017-10-20T20:27:40.619Z,23.97
2017-10-20T20:30:08.097Z,16.13
2017-10-20T20:32:52.037Z,19.27
2017-10-20T20:35:19.491Z,26.30
2017-10-20T20:37:46.969Z,21.60
2017-10-20T20:40:15.217Z,24.50
2017-10-20T20:42:42.677Z,35.50
2017-10-20T20:45:10.157Z,22.57
2017-10-20T20:47:38.391Z,26.10
2017-10-20T20:50:05.853Z,31.40
2017-10-20T20:52:33.328Z,18.77
2017-10-20T20:55:00.784Z,29.17
2017-10-20T20:57:29.011Z,22.30
2017-10-20T20:59:56.492Z,30.30
2017-10-20T21:02:23.998Z,20.73
2017-10-20T21:04:51.456Z,18.73
2017-10-20T21:07:18.943Z,19.80
2017-10-20T21:09:46.423Z,23.67
2017-10-20T21:12:13.955Z,16.13
2017-10-20T21:14:41.444Z,22.00
2017-10-20T21:17:08.917Z,24.40
2017-10-20T21:19:36.380Z,20.33
2017-10-20T21:22:04.648Z,19.10
2017-10-20T21:24:32.145Z,38.20
2017-10-20T21:26:59.620Z,16.77
2017-10-20T21:29:27.472Z,27.37
2017-10-20T21:31:54.939Z,19.03
2017-10-20T21:34:22.427Z,27.60
2017-10-20T21:36:49.895Z,26.67
2017-10-20T21:39:17.364Z,23.40
2017-10-20T21:41:45.618Z,18.03
2017-10-20T21:44:13.104Z,32.13
2017-10-20T21:46:41.108Z,21.07
2017-10-20T21:49:08.984Z,26.70
2017-10-20T21:51:36.431Z,34.40
2017-10-20T21:54:03.923Z,21.50
2017-10-20T21:56:31.407Z,21.97
2017-10-20T21:58:59.644Z,21.53
2017-10-20T22:01:27.120Z,29.20
2017-10-20T22:03:54.588Z,20.77
2017-10-20T22:06:22.902Z,20.33
2017-10-20T22:08:50.365Z,29.40
2017-10-20T22:11:17.919Z,16.03
2017-10-20T22:13:45.385Z,30.67
2017-10-20T22:16:12.842Z,20.10
2017-10-20T22:18:40.320Z,18.47
2017-10-20T22:21:07.775Z,19.00
2017-10-20T22:23:36.007Z,20.93
2017-10-20T22:26:03.493Z,14.63
2017-10-20T22:28:30.972Z,24.20
2017-10-20T22:30:58.759Z,25.23
2017-10-20T22:33:27.020Z,21.00
2017-10-20T22:35:54.487Z,24.83
2017-10-20T22:38:21.952Z,20.20
2017-10-20T22:40:49.451Z,23.57
2017-10-20T22:43:16.939Z,21.43
2017-10-20T22:45:45.928Z,17.90
2017-10-20T22:48:13.404Z,30.97
2017-10-20T22:50:40.880Z,22.10
2017-10-20T22:53:09.121Z,17.67
2017-10-20T22:55:36.599Z,32.23
2017-10-20T22:58:04.842Z,21.50
2017-10-20T23:00:33.108Z,19.73
2017-10-20T23:03:00.569Z,27.37
2017-10-20T23:05:28.861Z,30.97
2017-10-20T23:07:56.324Z,16.10
2017-10-20T23:10:23.783Z,17.53
2017-10-20T23:12:51.256Z,21.57
2017-10-20T23:15:19.479Z,21.07
2017-10-20T23:17:46.948Z,16.50
2017-10-20T23:20:14.411Z,22.60
2017-10-20T23:22:42.771Z,25.90
2017-10-20T23:25:10.257Z,15.80
2017-10-20T23:27:37.744Z,26.37
2017-10-20T23:30:06.280Z,33.43
2017-10-20T23:32:33.981Z,25.90
2017-10-20T23:35:02.239Z,25.93
2017-10-20T23:37:29.679Z,23.60
2017-10-20T23:39:57.139Z,15.03
2017-10-20T23:42:24.615Z,20.13
2017-10-20T23:44:52.075Z,28.13
2017-10-20T23:47:20.299Z,23.33
2017-10-20T23:49:47.780Z,15.10
2017-10-20T23:52:15.234Z,19.40
2017-10-20T23:54:43.223Z,14.40
2017-10-20T23:57:10.741Z,14.83
2017-10-20T23:59:38.199Z,18.73
